sensor_id;sensor_type;location;lat;lon;timestamp;P1;durP1;ratioP1;P2;durP2;ratioP2
40503;SDS011;42292;49.048;8.374;2022-07-30T00:01:22;5.13;;;3.73;;
40503;SDS011;42292;49.048;8.374;2022-07-30T00:03:49;5.53;;;3.83;;
40503;SDS011;42292;49.048;8.374;2022-07-30T00:06:17;4.50;;;3.40;;
40503;SDS011;42292;49.048;8.374;2022-07-30T00:08:44;5.00;;;3.83;;
40503;SDS011;42292;49.048;8.374;2022-07-30T00:11:11;4.00;;;3.60;;
40503;SDS011;42292;49.048;8.374;2022-07-30T00:13:37;5.77;;;3.73;;
40503;SDS011;42292;49.048;8.374;2022-07-30T00:16:03;5.90;;;4.07;;
40503;SDS011;42292;49.048;8.374;2022-07-30T00:18:31;5.35;;;3.53;;
40503;SDS011;42292;49.048;8.374;2022-07-30T00:20:57;8.05;;;3.45;;
40503;SDS011;42292;49.048;8.374;2022-07-30T00:23:23;4.40;;;3.53;;
40503;SDS011;42292;49.048;8.374;2022-07-30T00:25:48;6.47;;;4.07;;
40503;SDS011;42292;49.048;8.374;2022-07-30T00:28:16;5.20;;;3.90;;
40503;SDS011;42292;49.048;8.374;2022-07-30T00:30:42;4.97;;;3.67;;
40503;SDS011;42292;49.048;8.374;2022-07-30T00:33:08;6.20;;;3.90;;
40503;SDS011;42292;49.048;8.374;2022-07-30T00:35:33;5.10;;;3.90;;
40503;SDS011;42292;49.048;8.374;2022-07-30T00:37:59;5.43;;;3.67;;
40503;SDS011;42292;49.048;8.374;2022-07-30T00:40:25;4.67;;;3.43;;
40503;SDS011;42292;49.048;8.374;2022-07-30T00:42:50;6.37;;;4.20;;
40503;SDS011;42292;49.048;8.374;2022-07-30T00:45:16;5.37;;;4.10;;
40503;SDS011;42292;49.048;8.374;2022-07-30T00:47:45;7.45;;;4.50;;
40503;SDS011;42292;49.048;8.374;2022-07-30T00:50:13;5.97;;;4.18;;
40503;SDS011;42292;49.048;8.374;2022-07-30T00:52:41;7.20;;;4.50;;
40503;SDS011;42292;49.048;8.374;2022-07-30T00:55:09;7.40;;;4.50;;
40503;SDS011;42292;49.048;8.374;2022-07-30T00:57:39;5.60;;;4.15;;
40503;SDS011;42292;49.048;8.374;2022-07-30T01:00:09;6.38;;;3.58;;
40503;SDS011;42292;49.048;8.374;2022-07-30T01:02:37;6.60;;;3.72;;
40503;SDS011;42292;49.048;8.374;2022-07-30T01:05:04;7.63;;;3.93;;
40503;SDS011;42292;49.048;8.374;2022-07-30T01:07:33;6.38;;;4.03;;
40503;SDS011;42292;49.048;8.374;2022-07-30T01:09:59;9.07;;;4.60;;
40503;SDS011;42292;49.048;8.374;2022-07-30T01:12:27;5.35;;;4.18;;
40503;SDS011;42292;49.048;8.374;2022-07-30T01:14:56;9.43;;;5.50;;
40503;SDS011;42292;49.048;8.374;2022-07-30T01:17:25;4.68;;;3.85;;
40503;SDS011;42292;49.048;8.374;2022-07-30T01:19:54;6.57;;;4.30;;
40503;SDS011;42292;49.048;8.374;2022-07-30T01:25:08;10.10;;;5.10;;
40503;SDS011;42292;49.048;8.374;2022-07-30T01:28:11;4.70;;;3.83;;
40503;SDS011;42292;49.048;8.374;2022-07-30T01:30:40;7.18;;;4.75;;
40503;SDS011;42292;49.048;8.374;2022-07-30T01:33:13;6.85;;;4.40;;
40503;SDS011;42292;49.048;8.374;2022-07-30T01:35:40;4.88;;;4.20;;
40503;SDS011;42292;49.048;8.374;2022-07-30T01:38:08;4.45;;;4.00;;
40503;SDS011;42292;49.048;8.374;2022-07-30T01:40:36;8.02;;;4.57;;
40503;SDS011;42292;49.048;8.374;2022-07-30T01:43:03;6.17;;;4.50;;
40503;SDS011;42292;49.048;8.374;2022-07-30T01:45:31;7.07;;;4.97;;
40503;SDS011;42292;49.048;8.374;2022-07-30T01:48:02;8.90;;;5.18;;
40503;SDS011;42292;49.048;8.374;2022-07-30T01:50:29;5.85;;;4.63;;
40503;SDS011;42292;49.048;8.374;2022-07-30T01:52:58;4.63;;;4.15;;
40503;SDS011;42292;49.048;8.374;2022-07-30T01:55:32;7.35;;;4.68;;
40503;SDS011;42292;49.048;8.374;2022-07-30T01:57:59;6.85;;;4.38;;
40503;SDS011;42292;49.048;8.374;2022-07-30T02:00:27;4.93;;;4.25;;
40503;SDS011;42292;49.048;8.374;2022-07-30T02:02:57;8.32;;;4.80;;
40503;SDS011;42292;49.048;8.374;2022-07-30T02:05:23;6.60;;;4.60;;
40503;SDS011;42292;49.048;8.374;2022-07-30T02:08:00;6.72;;;4.60;;
40503;SDS011;42292;49.048;8.374;2022-07-30T02:12:57;8.45;;;4.60;;
40503;SDS011;42292;49.048;8.374;2022-07-30T02:18:14;8.30;;;5.13;;
40503;SDS011;42292;49.048;8.374;2022-07-30T02:20:46;6.95;;;4.60;;
40503;SDS011;42292;49.048;8.374;2022-07-30T02:23:18;6.88;;;4.47;;
40503;SDS011;42292;49.048;8.374;2022-07-30T02:25:48;7.03;;;4.72;;
40503;SDS011;42292;49.048;8.374;2022-07-30T02:28:18;9.25;;;5.00;;
40503;SDS011;42292;49.048;8.374;2022-07-30T02:30:50;9.90;;;5.10;;
40503;SDS011;42292;49.048;8.374;2022-07-30T02:33:20;7.32;;;5.03;;
40503;SDS011;42292;49.048;8.374;2022-07-30T02:35:51;9.63;;;5.53;;
40503;SDS011;42292;49.048;8.374;2022-07-30T02:38:20;7.05;;;4.88;;
40503;SDS011;42292;49.048;8.374;2022-07-30T02:40:46;7.53;;;4.70;;
40503;SDS011;42292;49.048;8.374;2022-07-30T02:43:16;6.68;;;4.80;;
40503;SDS011;42292;49.048;8.374;2022-07-30T02:45:45;7.65;;;5.10;;
40503;SDS011;42292;49.048;8.374;2022-07-30T02:48:12;7.15;;;5.15;;
40503;SDS011;42292;49.048;8.374;2022-07-30T02:50:39;6.28;;;5.07;;
40503;SDS011;42292;49.048;8.374;2022-07-30T02:53:07;6.82;;;5.03;;
40503;SDS011;42292;49.048;8.374;2022-07-30T02:55:34;7.75;;;5.22;;
40503;SDS011;42292;49.048;8.374;2022-07-30T02:58:05;7.55;;;5.10;;
40503;SDS011;42292;49.048;8.374;2022-07-30T03:00:31;6.15;;;5.15;;
40503;SDS011;42292;49.048;8.374;2022-07-30T03:02:58;8.30;;;5.00;;
40503;SDS011;42292;49.048;8.374;2022-07-30T03:05:25;7.85;;;5.07;;
40503;SDS011;42292;49.048;8.374;2022-07-30T03:07:55;7.20;;;4.68;;
40503;SDS011;42292;49.048;8.374;2022-07-30T03:10:23;5.53;;;4.70;;
40503;SDS011;42292;49.048;8.374;2022-07-30T03:12:50;6.25;;;5.22;;
40503;SDS011;42292;49.048;8.374;2022-07-30T03:15:16;8.45;;;5.13;;
40503;SDS011;42292;49.048;8.374;2022-07-30T03:17:45;7.53;;;5.30;;
40503;SDS011;42292;49.048;8.374;2022-07-30T03:20:19;7.88;;;5.00;;
40503;SDS011;42292;49.048;8.374;2022-07-30T03:22:50;6.47;;;5.13;;
40503;SDS011;42292;49.048;8.374;2022-07-30T03:25:25;7.45;;;5.38;;
40503;SDS011;42292;49.048;8.374;2022-07-30T03:27:55;7.97;;;5.60;;
40503;SDS011;42292;49.048;8.374;2022-07-30T03:30:23;7.68;;;5.45;;
40503;SDS011;42292;49.048;8.374;2022-07-30T03:32:52;9.80;;;5.90;;
40503;SDS011;42292;49.048;8.374;2022-07-30T03:35:22;7.43;;;5.72;;
40503;SDS011;42292;49.048;8.374;2022-07-30T03:37:52;7.00;;;5.70;;
40503;SDS011;42292;49.048;8.374;2022-07-30T03:40:21;7.32;;;5.40;;
40503;SDS011;42292;49.048;8.374;2022-07-30T03:42:49;6.40;;;5.80;;
40503;SDS011;42292;49.048;8.374;2022-07-30T03:45:18;7.03;;;5.53;;
40503;SDS011;42292;49.048;8.374;2022-07-30T03:47:44;9.73;;;5.93;;
40503;SDS011;42292;49.048;8.374;2022-07-30T03:50:12;9.02;;;6.10;;
40503;SDS011;42292;49.048;8.374;2022-07-30T03:52:40;6.65;;;5.93;;
40503;SDS011;42292;49.048;8.374;2022-07-30T03:55:07;9.20;;;6.43;;
40503;SDS011;42292;49.048;8.374;2022-07-30T03:57:36;9.85;;;6.60;;
40503;SDS011;42292;49.048;8.374;2022-07-30T04:00:05;12.18;;;6.63;;
40503;SDS011;42292;49.048;8.374;2022-07-30T04:02:54;8.43;;;6.25;;
40503;SDS011;42292;49.048;8.374;2022-07-30T04:05:22;7.80;;;6.75;;
40503;SDS011;42292;49.048;8.374;2022-07-30T04:07:50;9.68;;;6.72;;
40503;SDS011;42292;49.048;8.374;2022-07-30T04:10:16;9.20;;;7.00;;
40503;SDS011;42292;49.048;8.374;2022-07-30T04:12:41;12.13;;;7.13;;
40503;SDS011;42292;49.048;8.374;2022-07-30T04:15:07;9.17;;;6.50;;
40503;SDS011;42292;49.048;8.374;2022-07-30T04:17:43;11.30;;;6.25;;
40503;SDS011;42292;49.048;8.374;2022-07-30T04:20:16;7.60;;;6.07;;
40503;SDS011;42292;49.048;8.374;2022-07-30T04:22:45;8.23;;;5.70;;
40503;SDS011;42292;49.048;8.374;2022-07-30T04:25:12;7.40;;;5.90;;
40503;SDS011;42292;49.048;8.374;2022-07-30T04:27:44;9.27;;;6.18;;
40503;SDS011;42292;49.048;8.374;2022-07-30T04:30:12;7.80;;;5.50;;
40503;SDS011;42292;49.048;8.374;2022-07-30T04:32:40;7.97;;;6.00;;
40503;SDS011;42292;49.048;8.374;2022-07-30T04:35:08;13.02;;;11.52;;
40503;SDS011;42292;49.048;8.374;2022-07-30T04:37:36;10.93;;;8.45;;
40503;SDS011;42292;49.048;8.374;2022-07-30T04:40:02;8.00;;;5.90;;
40503;SDS011;42292;49.048;8.374;2022-07-30T04:42:30;9.18;;;6.28;;
40503;SDS011;42292;49.048;8.374;2022-07-30T04:45:00;8.67;;;5.70;;
40503;SDS011;42292;49.048;8.374;2022-07-30T04:47:26;8.52;;;5.90;;
40503;SDS011;42292;49.048;8.374;2022-07-30T04:49:54;7.10;;;5.60;;
40503;SDS011;42292;49.048;8.374;2022-07-30T04:52:21;7.63;;;5.20;;
40503;SDS011;42292;49.048;8.374;2022-07-30T04:54:50;6.75;;;5.25;;
40503;SDS011;42292;49.048;8.374;2022-07-30T04:57:18;10.13;;;5.53;;
40503;SDS011;42292;49.048;8.374;2022-07-30T04:59:44;9.30;;;5.65;;
40503;SDS011;42292;49.048;8.374;2022-07-30T05:02:12;12.38;;;5.45;;
40503;SDS011;42292;49.048;8.374;2022-07-30T05:04:43;6.78;;;4.95;;
40503;SDS011;42292;49.048;8.374;2022-07-30T05:07:11;8.45;;;5.30;;
40503;SDS011;42292;49.048;8.374;2022-07-30T05:09:38;8.32;;;5.10;;
40503;SDS011;42292;49.048;8.374;2022-07-30T05:12:07;7.22;;;5.00;;
40503;SDS011;42292;49.048;8.374;2022-07-30T05:14:33;7.40;;;5.22;;
40503;SDS011;42292;49.048;8.374;2022-07-30T05:17:01;6.63;;;4.88;;
40503;SDS011;42292;49.048;8.374;2022-07-30T05:19:27;8.75;;;5.20;;
40503;SDS011;42292;49.048;8.374;2022-07-30T05:21:55;7.68;;;5.25;;
40503;SDS011;42292;49.048;8.374;2022-07-30T05:24:24;5.82;;;4.95;;
40503;SDS011;42292;49.048;8.374;2022-07-30T05:26:52;6.78;;;4.97;;
40503;SDS011;42292;49.048;8.374;2022-07-30T05:29:18;7.22;;;4.80;;
40503;SDS011;42292;49.048;8.374;2022-07-30T05:31:43;8.00;;;5.22;;
40503;SDS011;42292;49.048;8.374;2022-07-30T05:34:09;8.50;;;4.80;;
40503;SDS011;42292;49.048;8.374;2022-07-30T05:36:34;6.40;;;4.80;;
40503;SDS011;42292;49.048;8.374;2022-07-30T05:39:02;5.78;;;4.70;;
40503;SDS011;42292;49.048;8.374;2022-07-30T05:41:28;6.80;;;4.63;;
40503;SDS011;42292;49.048;8.374;2022-07-30T05:43:56;7.03;;;4.78;;
40503;SDS011;42292;49.048;8.374;2022-07-30T05:46:22;6.50;;;4.60;;
40503;SDS011;42292;49.048;8.374;2022-07-30T05:48:50;7.55;;;4.82;;
40503;SDS011;42292;49.048;8.374;2022-07-30T05:51:18;6.80;;;4.65;;
40503;SDS011;42292;49.048;8.374;2022-07-30T05:53:45;8.30;;;5.37;;
40503;SDS011;42292;49.048;8.374;2022-07-30T05:56:10;6.70;;;4.80;;
40503;SDS011;42292;49.048;8.374;2022-07-30T05:58:36;7.45;;;5.13;;
40503;SDS011;42292;49.048;8.374;2022-07-30T06:01:04;6.28;;;5.07;;
40503;SDS011;42292;49.048;8.374;2022-07-30T06:03:30;7.97;;;5.00;;
40503;SDS011;42292;49.048;8.374;2022-07-30T06:06:00;6.10;;;4.65;;
40503;SDS011;42292;49.048;8.374;2022-07-30T06:08:27;9.15;;;4.88;;
40503;SDS011;42292;49.048;8.374;2022-07-30T06:10:55;8.52;;;4.63;;
40503;SDS011;42292;49.048;8.374;2022-07-30T06:13:23;7.18;;;4.70;;
40503;SDS011;42292;49.048;8.374;2022-07-30T06:15:49;11.05;;;7.78;;
40503;SDS011;42292;49.048;8.374;2022-07-30T06:18:17;5.10;;;4.30;;
40503;SDS011;42292;49.048;8.374;2022-07-30T06:20:43;8.05;;;4.28;;
40503;SDS011;42292;49.048;8.374;2022-07-30T06:23:08;6.03;;;4.22;;
40503;SDS011;42292;49.048;8.374;2022-07-30T06:25:34;7.38;;;4.38;;
40503;SDS011;42292;49.048;8.374;2022-07-30T06:28:02;5.88;;;4.10;;
40503;SDS011;42292;49.048;8.374;2022-07-30T06:30:28;4.90;;;3.97;;
40503;SDS011;42292;49.048;8.374;2022-07-30T06:32:54;7.77;;;4.30;;
40503;SDS011;42292;49.048;8.374;2022-07-30T06:35:19;4.70;;;4.20;;
40503;SDS011;42292;49.048;8.374;2022-07-30T06:37:50;6.25;;;4.32;;
40503;SDS011;42292;49.048;8.374;2022-07-30T06:40:15;8.30;;;4.30;;
40503;SDS011;42292;49.048;8.374;2022-07-30T06:42:41;7.27;;;4.40;;
40503;SDS011;42292;49.048;8.374;2022-07-30T06:45:07;8.00;;;4.28;;
40503;SDS011;42292;49.048;8.374;2022-07-30T06:47:37;8.63;;;4.30;;
40503;SDS011;42292;49.048;8.374;2022-07-30T06:50:03;5.63;;;4.30;;
40503;SDS011;42292;49.048;8.374;2022-07-30T06:52:29;7.60;;;4.38;;
40503;SDS011;42292;49.048;8.374;2022-07-30T06:54:54;6.40;;;4.20;;
40503;SDS011;42292;49.048;8.374;2022-07-30T06:57:22;6.70;;;4.18;;
40503;SDS011;42292;49.048;8.374;2022-07-30T06:59:47;5.00;;;3.95;;
40503;SDS011;42292;49.048;8.374;2022-07-30T07:02:16;7.00;;;3.75;;
40503;SDS011;42292;49.048;8.374;2022-07-30T07:04:41;6.07;;;4.03;;
40503;SDS011;42292;49.048;8.374;2022-07-30T07:07:07;4.43;;;3.80;;
40503;SDS011;42292;49.048;8.374;2022-07-30T07:09:35;4.68;;;3.45;;
40503;SDS011;42292;49.048;8.374;2022-07-30T07:12:00;8.30;;;3.75;;
40503;SDS011;42292;49.048;8.374;2022-07-30T07:14:29;8.60;;;3.90;;
40503;SDS011;42292;49.048;8.374;2022-07-30T07:16:55;6.70;;;3.83;;
40503;SDS011;42292;49.048;8.374;2022-07-30T07:19:21;5.10;;;4.00;;
40503;SDS011;42292;49.048;8.374;2022-07-30T07:21:46;5.67;;;3.53;;
40503;SDS011;42292;49.048;8.374;2022-07-30T07:24:17;4.35;;;3.20;;
40503;SDS011;42292;49.048;8.374;2022-07-30T07:26:42;5.93;;;4.13;;
40503;SDS011;42292;49.048;8.374;2022-07-30T07:29:08;8.13;;;4.28;;
40503;SDS011;42292;49.048;8.374;2022-07-30T07:31:34;5.82;;;3.60;;
40503;SDS011;42292;49.048;8.374;2022-07-30T07:34:02;6.43;;;3.67;;
40503;SDS011;42292;49.048;8.374;2022-07-30T07:36:27;6.30;;;3.50;;
40503;SDS011;42292;49.048;8.374;2022-07-30T07:38:53;4.40;;;3.10;;
40503;SDS011;42292;49.048;8.374;2022-07-30T07:41:23;3.53;;;3.10;;
40503;SDS011;42292;49.048;8.374;2022-07-30T07:43:50;5.97;;;3.33;;
40503;SDS011;42292;49.048;8.374;2022-07-30T07:46:20;4.63;;;2.95;;
40503;SDS011;42292;49.048;8.374;2022-07-30T07:48:50;8.38;;;3.97;;
40503;SDS011;42292;49.048;8.374;2022-07-30T07:51:18;6.00;;;3.50;;
40503;SDS011;42292;49.048;8.374;2022-07-30T07:53:45;6.47;;;3.35;;
40503;SDS011;42292;49.048;8.374;2022-07-30T07:56:10;4.05;;;3.60;;
40503;SDS011;42292;49.048;8.374;2022-07-30T07:58:38;4.63;;;3.35;;
40503;SDS011;42292;49.048;8.374;2022-07-30T08:01:04;5.50;;;3.30;;
40503;SDS011;42292;49.048;8.374;2022-07-30T08:03:30;5.63;;;3.43;;
40503;SDS011;42292;49.048;8.374;2022-07-30T08:05:56;8.63;;;3.70;;
40503;SDS011;42292;49.048;8.374;2022-07-30T08:08:22;6.23;;;3.57;;
40503;SDS011;42292;49.048;8.374;2022-07-30T08:10:52;4.22;;;3.05;;
40503;SDS011;42292;49.048;8.374;2022-07-30T08:13:20;4.78;;;3.45;;
40503;SDS011;42292;49.048;8.374;2022-07-30T08:15:50;6.22;;;3.78;;
40503;SDS011;42292;49.048;8.374;2022-07-30T08:18:15;6.00;;;3.58;;
40503;SDS011;42292;49.048;8.374;2022-07-30T08:20:41;6.33;;;3.20;;
40503;SDS011;42292;49.048;8.374;2022-07-30T08:23:06;4.97;;;3.63;;
40503;SDS011;42292;49.048;8.374;2022-07-30T08:25:37;4.43;;;3.30;;
40503;SDS011;42292;49.048;8.374;2022-07-30T08:28:02;7.43;;;3.40;;
40503;SDS011;42292;49.048;8.374;2022-07-30T08:30:28;7.53;;;3.60;;
40503;SDS011;42292;49.048;8.374;2022-07-30T08:32:55;4.07;;;3.13;;
40503;SDS011;42292;49.048;8.374;2022-07-30T08:35:20;6.13;;;3.33;;
40503;SDS011;42292;49.048;8.374;2022-07-30T08:37:46;5.60;;;3.20;;
40503;SDS011;42292;49.048;8.374;2022-07-30T08:40:14;5.40;;;3.20;;
40503;SDS011;42292;49.048;8.374;2022-07-30T08:42:43;6.97;;;3.67;;
40503;SDS011;42292;49.048;8.374;2022-07-30T08:45:09;6.73;;;3.43;;
40503;SDS011;42292;49.048;8.374;2022-07-30T08:47:37;6.28;;;2.90;;
40503;SDS011;42292;49.048;8.374;2022-07-30T08:50:07;5.57;;;3.40;;
40503;SDS011;42292;49.048;8.374;2022-07-30T08:52:36;6.82;;;3.05;;
40503;SDS011;42292;49.048;8.374;2022-07-30T08:55:04;7.25;;;2.97;;
40503;SDS011;42292;49.048;8.374;2022-07-30T08:57:31;5.07;;;3.05;;
40503;SDS011;42292;49.048;8.374;2022-07-30T08:59:58;5.28;;;3.55;;
40503;SDS011;42292;49.048;8.374;2022-07-30T09:02:24;6.47;;;3.00;;
40503;SDS011;42292;49.048;8.374;2022-07-30T09:04:53;8.48;;;7.07;;
40503;SDS011;42292;49.048;8.374;2022-07-30T09:07:18;3.90;;;2.80;;
40503;SDS011;42292;49.048;8.374;2022-07-30T09:09:46;7.43;;;3.63;;
40503;SDS011;42292;49.048;8.374;2022-07-30T09:20:17;4.20;;;2.53;;
40503;SDS011;42292;49.048;8.374;2022-07-30T09:22:51;4.20;;;2.67;;
40503;SDS011;42292;49.048;8.374;2022-07-30T09:27:58;4.85;;;2.70;;
40503;SDS011;42292;49.048;8.374;2022-07-30T09:30:28;4.18;;;2.78;;
40503;SDS011;42292;49.048;8.374;2022-07-30T09:35:57;5.22;;;2.83;;
40503;SDS011;42292;49.048;8.374;2022-07-30T09:38:23;6.15;;;2.63;;
40503;SDS011;42292;49.048;8.374;2022-07-30T09:40:56;4.23;;;2.70;;
40503;SDS011;42292;49.048;8.374;2022-07-30T09:43:26;4.45;;;2.97;;
40503;SDS011;42292;49.048;8.374;2022-07-30T09:45:55;4.45;;;2.85;;
40503;SDS011;42292;49.048;8.374;2022-07-30T09:48:25;4.80;;;2.60;;
40503;SDS011;42292;49.048;8.374;2022-07-30T09:50:54;5.63;;;2.97;;
40503;SDS011;42292;49.048;8.374;2022-07-30T09:53:20;4.17;;;2.80;;
40503;SDS011;42292;49.048;8.374;2022-07-30T09:55:51;4.30;;;2.60;;
40503;SDS011;42292;49.048;8.374;2022-07-30T09:58:17;5.35;;;2.83;;
40503;SDS011;42292;49.048;8.374;2022-07-30T10:00:43;5.00;;;2.78;;
40503;SDS011;42292;49.048;8.374;2022-07-30T10:03:15;4.87;;;2.70;;
40503;SDS011;42292;49.048;8.374;2022-07-30T10:05:56;4.85;;;2.90;;
40503;SDS011;42292;49.048;8.374;2022-07-30T10:08:58;4.65;;;3.10;;
40503;SDS011;42292;49.048;8.374;2022-07-30T10:11:20;4.43;;;2.55;;
40503;SDS011;42292;49.048;8.374;2022-07-30T10:13:49;6.18;;;2.55;;
40503;SDS011;42292;49.048;8.374;2022-07-30T10:16:21;5.35;;;3.00;;
40503;SDS011;42292;49.048;8.374;2022-07-30T10:18:50;3.85;;;2.45;;
40503;SDS011;42292;49.048;8.374;2022-07-30T10:21:16;5.18;;;2.45;;
40503;SDS011;42292;49.048;8.374;2022-07-30T10:23:42;3.03;;;2.40;;
40503;SDS011;42292;49.048;8.374;2022-07-30T10:26:11;7.00;;;2.55;;
40503;SDS011;42292;49.048;8.374;2022-07-30T10:28:37;5.00;;;2.75;;
40503;SDS011;42292;49.048;8.374;2022-07-30T10:31:05;4.18;;;2.60;;
40503;SDS011;42292;49.048;8.374;2022-07-30T10:33:31;7.70;;;2.40;;
40503;SDS011;42292;49.048;8.374;2022-07-30T10:35:57;6.07;;;2.60;;
40503;SDS011;42292;49.048;8.374;2022-07-30T10:38:26;5.30;;;2.50;;
40503;SDS011;42292;49.048;8.374;2022-07-30T10:46:01;4.87;;;1.90;;
40503;SDS011;42292;49.048;8.374;2022-07-30T10:48:36;4.88;;;2.10;;
40503;SDS011;42292;49.048;8.374;2022-07-30T10:51:02;7.53;;;2.35;;
40503;SDS011;42292;49.048;8.374;2022-07-30T10:53:35;4.63;;;2.05;;
40503;SDS011;42292;49.048;8.374;2022-07-30T10:56:10;4.93;;;2.03;;
40503;SDS011;42292;49.048;8.374;2022-07-30T11:01:23;2.88;;;1.83;;
40503;SDS011;42292;49.048;8.374;2022-07-30T11:06:48;3.75;;;1.80;;
40503;SDS011;42292;49.048;8.374;2022-07-30T11:12:06;4.03;;;1.95;;
40503;SDS011;42292;49.048;8.374;2022-07-30T11:14:54;3.67;;;1.90;;
40503;SDS011;42292;49.048;8.374;2022-07-30T11:17:22;3.03;;;1.70;;
40503;SDS011;42292;49.048;8.374;2022-07-30T11:22:32;3.58;;;1.88;;
40503;SDS011;42292;49.048;8.374;2022-07-30T11:25:03;2.92;;;1.80;;
40503;SDS011;42292;49.048;8.374;2022-07-30T11:29:58;6.20;;;2.08;;
40503;SDS011;42292;49.048;8.374;2022-07-30T11:32:31;3.13;;;1.63;;
40503;SDS011;42292;49.048;8.374;2022-07-30T11:37:56;3.27;;;1.70;;
40503;SDS011;42292;49.048;8.374;2022-07-30T11:43:27;5.72;;;1.80;;
40503;SDS011;42292;49.048;8.374;2022-07-30T11:48:31;4.40;;;1.70;;
40503;SDS011;42292;49.048;8.374;2022-07-30T11:50:58;3.05;;;1.67;;
40503;SDS011;42292;49.048;8.374;2022-07-30T11:53:23;5.10;;;2.08;;
40503;SDS011;42292;49.048;8.374;2022-07-30T11:55:52;4.25;;;1.92;;
40503;SDS011;42292;49.048;8.374;2022-07-30T11:58:30;3.13;;;1.40;;
40503;SDS011;42292;49.048;8.374;2022-07-30T12:03:27;3.92;;;1.58;;
40503;SDS011;42292;49.048;8.374;2022-07-30T12:06:04;3.05;;;1.27;;
40503;SDS011;42292;49.048;8.374;2022-07-30T12:08:43;4.45;;;1.40;;
40503;SDS011;42292;49.048;8.374;2022-07-30T12:11:11;2.92;;;1.40;;
40503;SDS011;42292;49.048;8.374;2022-07-30T12:13:37;1.73;;;1.13;;
40503;SDS011;42292;49.048;8.374;2022-07-30T12:16:08;3.90;;;1.40;;
40503;SDS011;42292;49.048;8.374;2022-07-30T12:18:34;5.00;;;1.30;;
40503;SDS011;42292;49.048;8.374;2022-07-30T12:21:01;4.60;;;4.20;;
40503;SDS011;42292;49.048;8.374;2022-07-30T12:23:32;2.33;;;1.45;;
40503;SDS011;42292;49.048;8.374;2022-07-30T12:26:00;4.25;;;1.60;;
40503;SDS011;42292;49.048;8.374;2022-07-30T12:28:29;5.20;;;2.22;;
40503;SDS011;42292;49.048;8.374;2022-07-30T12:30:57;3.15;;;1.20;;
40503;SDS011;42292;49.048;8.374;2022-07-30T12:33:24;2.10;;;1.30;;
40503;SDS011;42292;49.048;8.374;2022-07-30T12:35:56;4.10;;;1.15;;
40503;SDS011;42292;49.048;8.374;2022-07-30T12:38:27;5.43;;;1.27;;
40503;SDS011;42292;49.048;8.374;2022-07-30T12:41:06;3.50;;;1.40;;
40503;SDS011;42292;49.048;8.374;2022-07-30T12:48:57;2.83;;;1.40;;
40503;SDS011;42292;49.048;8.374;2022-07-30T12:51:32;1.60;;;1.20;;
40503;SDS011;42292;49.048;8.374;2022-07-30T12:53:59;2.87;;;1.33;;
40503;SDS011;42292;49.048;8.374;2022-07-30T12:56:54;3.67;;;1.40;;
40503;SDS011;42292;49.048;8.374;2022-07-30T12:59:24;1.77;;;1.13;;
40503;SDS011;42292;49.048;8.374;2022-07-30T13:01:50;2.08;;;1.00;;
40503;SDS011;42292;49.048;8.374;2022-07-30T13:04:17;6.33;;;1.40;;
40503;SDS011;42292;49.048;8.374;2022-07-30T13:06:43;2.45;;;1.15;;
40503;SDS011;42292;49.048;8.374;2022-07-30T13:09:35;4.03;;;1.20;;
40503;SDS011;42292;49.048;8.374;2022-07-30T13:12:12;2.78;;;1.35;;
40503;SDS011;42292;49.048;8.374;2022-07-30T13:14:42;1.90;;;1.10;;
40503;SDS011;42292;49.048;8.374;2022-07-30T13:17:10;1.93;;;0.97;;
40503;SDS011;42292;49.048;8.374;2022-07-30T13:19:36;2.27;;;1.10;;
40503;SDS011;42292;49.048;8.374;2022-07-30T13:22:04;2.70;;;1.30;;
40503;SDS011;42292;49.048;8.374;2022-07-30T13:24:29;2.65;;;1.30;;
40503;SDS011;42292;49.048;8.374;2022-07-30T13:26:57;2.33;;;1.20;;
40503;SDS011;42292;49.048;8.374;2022-07-30T13:29:23;2.35;;;1.23;;
40503;SDS011;42292;49.048;8.374;2022-07-30T13:31:48;2.05;;;1.10;;
40503;SDS011;42292;49.048;8.374;2022-07-30T13:34:19;1.70;;;1.00;;
40503;SDS011;42292;49.048;8.374;2022-07-30T13:36:46;3.22;;;1.20;;
40503;SDS011;42292;49.048;8.374;2022-07-30T13:39:12;2.05;;;1.27;;
40503;SDS011;42292;49.048;8.374;2022-07-30T13:41:40;2.50;;;1.00;;
40503;SDS011;42292;49.048;8.374;2022-07-30T13:44:06;3.77;;;1.40;;
40503;SDS011;42292;49.048;8.374;2022-07-30T13:46:34;2.72;;;1.20;;
40503;SDS011;42292;49.048;8.374;2022-07-30T13:49:00;2.95;;;1.27;;
40503;SDS011;42292;49.048;8.374;2022-07-30T13:51:26;2.85;;;1.15;;
40503;SDS011;42292;49.048;8.374;2022-07-30T13:53:51;2.30;;;1.00;;
40503;SDS011;42292;49.048;8.374;2022-07-30T13:56:17;1.20;;;0.90;;
40503;SDS011;42292;49.048;8.374;2022-07-30T13:58:45;5.10;;;1.20;;
40503;SDS011;42292;49.048;8.374;2022-07-30T14:01:12;3.08;;;1.15;;
40503;SDS011;42292;49.048;8.374;2022-07-30T14:03:38;3.08;;;1.00;;
40503;SDS011;42292;49.048;8.374;2022-07-30T14:06:08;2.03;;;1.15;;
40503;SDS011;42292;49.048;8.374;2022-07-30T14:08:36;2.10;;;1.17;;
40503;SDS011;42292;49.048;8.374;2022-07-30T14:11:01;3.00;;;1.00;;
40503;SDS011;42292;49.048;8.374;2022-07-30T14:13:29;2.00;;;1.10;;
40503;SDS011;42292;49.048;8.374;2022-07-30T14:15:57;2.22;;;1.15;;
40503;SDS011;42292;49.048;8.374;2022-07-30T14:18:25;2.17;;;0.90;;
40503;SDS011;42292;49.048;8.374;2022-07-30T14:20:50;2.47;;;0.90;;
40503;SDS011;42292;49.048;8.374;2022-07-30T14:23:17;1.77;;;0.90;;
40503;SDS011;42292;49.048;8.374;2022-07-30T14:25:45;1.52;;;0.93;;
40503;SDS011;42292;49.048;8.374;2022-07-30T14:28:12;1.80;;;0.83;;
40503;SDS011;42292;49.048;8.374;2022-07-30T14:30:40;3.13;;;0.90;;
40503;SDS011;42292;49.048;8.374;2022-07-30T14:33:06;3.30;;;0.90;;
40503;SDS011;42292;49.048;8.374;2022-07-30T14:35:34;2.17;;;0.80;;
40503;SDS011;42292;49.048;8.374;2022-07-30T14:38:00;1.50;;;0.70;;
40503;SDS011;42292;49.048;8.374;2022-07-30T14:40:28;1.38;;;0.70;;
40503;SDS011;42292;49.048;8.374;2022-07-30T14:42:54;2.23;;;0.70;;
40503;SDS011;42292;49.048;8.374;2022-07-30T14:45:19;2.67;;;0.90;;
40503;SDS011;42292;49.048;8.374;2022-07-30T14:47:45;1.60;;;0.80;;
40503;SDS011;42292;49.048;8.374;2022-07-30T14:50:13;3.25;;;1.10;;
40503;SDS011;42292;49.048;8.374;2022-07-30T14:52:38;2.40;;;0.90;;
40503;SDS011;42292;49.048;8.374;2022-07-30T14:55:05;1.38;;;0.70;;
40503;SDS011;42292;49.048;8.374;2022-07-30T14:57:31;4.22;;;0.88;;
40503;SDS011;42292;49.048;8.374;2022-07-30T14:59:57;3.30;;;1.05;;
40503;SDS011;42292;49.048;8.374;2022-07-30T15:02:23;1.35;;;0.70;;
40503;SDS011;42292;49.048;8.374;2022-07-30T15:04:54;1.95;;;0.88;;
40503;SDS011;42292;49.048;8.374;2022-07-30T15:07:19;1.42;;;0.60;;
40503;SDS011;42292;49.048;8.374;2022-07-30T15:09:45;3.30;;;0.60;;
40503;SDS011;42292;49.048;8.374;2022-07-30T15:12:10;2.07;;;0.93;;
40503;SDS011;42292;49.048;8.374;2022-07-30T15:14:38;3.17;;;0.80;;
40503;SDS011;42292;49.048;8.374;2022-07-30T15:17:05;2.47;;;0.80;;
40503;SDS011;42292;49.048;8.374;2022-07-30T15:19:35;0.82;;;0.60;;
40503;SDS011;42292;49.048;8.374;2022-07-30T15:22:04;2.92;;;0.82;;
40503;SDS011;42292;49.048;8.374;2022-07-30T15:24:30;1.48;;;0.70;;
40503;SDS011;42292;49.048;8.374;2022-07-30T15:27:01;2.67;;;0.77;;
40503;SDS011;42292;49.048;8.374;2022-07-30T15:29:26;1.08;;;0.63;;
40503;SDS011;42292;49.048;8.374;2022-07-30T15:31:55;1.20;;;0.70;;
40503;SDS011;42292;49.048;8.374;2022-07-30T15:34:21;1.30;;;0.70;;
40503;SDS011;42292;49.048;8.374;2022-07-30T15:36:46;1.25;;;0.73;;
40503;SDS011;42292;49.048;8.374;2022-07-30T15:39:12;1.47;;;0.60;;
40503;SDS011;42292;49.048;8.374;2022-07-30T15:41:38;1.40;;;0.60;;
40503;SDS011;42292;49.048;8.374;2022-07-30T15:44:06;4.30;;;0.63;;
40503;SDS011;42292;49.048;8.374;2022-07-30T15:46:32;2.70;;;0.67;;
40503;SDS011;42292;49.048;8.374;2022-07-30T15:48:57;2.37;;;0.80;;
40503;SDS011;42292;49.048;8.374;2022-07-30T15:51:23;2.28;;;0.50;;